Time;durP1;ratioP1;P1;durP2;ratioP2;P2;SDS_P1;SDS_P2;PMS_P1;PMS_P2;Temp;Humidity;BMP_temperature;BMP_pressure;BME280_temperature;BME280_humidity;BME280_pressure;Samples;Min_cycle;Max_cycle;Signal;HPM_P1;HPM_P2
2022/09/27 00:01:08;;;;;;;1.23;1.15;;;20.70;47.00;;;;;;5050865;28;20049;-10
2022/09/27 00:03:34;;;;;;;2.08;1.20;;;20.70;47.00;;;;;;5051009;28;20052;-10
2022/09/27 00:06:27;;;;;;;1.70;1.20;;;20.70;47.00;;;;;;5050288;28;20056;-10
2022/09/27 00:08:53;;;;;;;1.35;1.20;;;20.70;46.90;;;;;;5052720;28;20056;-10
2022/09/27 00:11:32;;;;;;;2.33;0.95;;;20.70;47.00;;;;;;5050360;28;20454;-10
2022/09/27 00:13:58;;;;;;;1.42;1.17;;;20.70;47.00;;;;;;5050492;28;20049;-10
2022/09/27 00:16:30;;;;;;;1.02;1.02;;;20.70;47.00;;;;;;5050077;28;20065;-10
2022/09/27 00:19:02;;;;;;;1.33;1.20;;;20.70;47.00;;;;;;5050302;28;20136;-10
2022/09/27 00:21:29;;;;;;;1.20;1.10;;;20.70;47.00;;;;;;5050329;28;20105;-10
2022/09/27 00:23:56;;;;;;;1.23;1.13;;;20.70;47.00;;;;;;5050278;28;20049;-10
2022/09/27 00:26:22;;;;;;;1.67;1.25;;;20.70;47.00;;;;;;5050105;28;20061;-10
2022/09/27 00:28:48;;;;;;;1.00;1.00;;;20.70;47.00;;;;;;5032234;28;20053;-10
2022/09/27 00:31:21;;;;;;;1.20;1.00;;;20.70;47.00;;;;;;5118860;27;20131;-10
2022/09/27 00:33:48;;;;;;;1.30;1.20;;;20.70;47.00;;;;;;5119292;28;20049;-10
2022/09/27 00:36:15;;;;;;;1.25;0.98;;;20.70;47.10;;;;;;5032212;28;20406;-10
2022/09/27 00:38:41;;;;;;;1.25;1.15;;;20.60;47.00;;;;;;5050284;28;20060;-10
2022/09/27 00:41:15;;;;;;;1.00;0.90;;;20.60;47.10;;;;;;5032198;28;20056;-10
2022/09/27 00:43:56;;;;;;;1.38;1.20;;;20.60;47.00;;;;;;5050665;28;20048;-10
2022/09/27 00:46:39;;;;;;;1.00;0.90;;;20.70;47.10;;;;;;5050110;28;20061;-10
2022/09/27 00:49:12;;;;;;;1.13;1.02;;;20.70;47.10;;;;;;5029983;28;20149;-10
2022/09/27 00:51:39;;;;;;;1.27;1.17;;;20.70;47.10;;;;;;5116191;27;20486;-10
2022/09/27 00:54:09;;;;;;;1.20;1.10;;;20.60;47.00;;;;;;5049755;28;20479;-10
2022/09/27 00:56:36;;;;;;;1.10;1.00;;;20.60;47.00;;;;;;5049619;28;20055;-10
2022/09/27 00:59:10;;;;;;;1.63;1.00;;;20.60;47.10;;;;;;5050331;28;20060;-10
2022/09/27 01:01:36;;;;;;;1.15;0.98;;;20.60;47.10;;;;;;5050399;28;20467;-10
2022/09/27 01:04:13;;;;;;;1.00;0.90;;;20.60;47.10;;;;;;5047369;28;20076;-10
2022/09/27 01:06:39;;;;;;;1.30;1.08;;;20.60;47.10;;;;;;5031124;28;20566;-10
2022/09/27 01:09:10;;;;;;;1.13;0.90;;;20.60;47.10;;;;;;5050323;28;20140;-10
2022/09/27 01:11:48;;;;;;;0.90;0.90;;;20.60;47.10;;;;;;5050113;28;20044;-10
2022/09/27 01:14:51;;;;;;;1.17;1.02;;;20.60;47.10;;;;;;5049927;28;20041;-10
2022/09/27 01:17:27;;;;;;;1.00;0.90;;;20.60;47.10;;;;;;5048631;28;20558;-10
2022/09/27 01:20:12;;;;;;;1.40;1.10;;;20.60;47.10;;;;;;5047006;28;20053;-10
2022/09/27 01:22:44;;;;;;;1.10;1.00;;;20.60;47.10;;;;;;5031676;28;20140;-10
2022/09/27 01:25:48;;;;;;;0.90;0.80;;;20.60;47.20;;;;;;5049930;28;20466;-10
2022/09/27 01:28:48;;;;;;;0.88;0.88;;;20.60;47.20;;;;;;5030877;28;20474;-10
2022/09/27 01:31:24;;;;;;;0.95;0.88;;;20.60;47.20;;;;;;5048090;28;20117;-10
2022/09/27 01:34:10;;;;;;;0.90;0.90;;;20.60;47.10;;;;;;5050008;28;20041;-10
2022/09/27 01:36:49;;;;;;;1.05;0.95;;;20.60;47.20;;;;;;5049428;28;20501;-10
2022/09/27 01:39:17;;;;;;;1.20;1.10;;;20.60;47.20;;;;;;5049307;28;20479;-10
2022/09/27 01:42:17;;;;;;;0.80;0.80;;;20.50;47.20;;;;;;5049359;28;20418;-10
2022/09/27 01:45:13;;;;;;;1.15;0.95;;;20.60;47.20;;;;;;5049363;28;20049;-10
2022/09/27 01:47:53;;;;;;;1.10;1.00;;;20.50;47.20;;;;;;5030907;28;20387;-10
2022/09/27 01:51:04;;;;;;;0.80;0.80;;;20.50;47.30;;;;;;5049523;28;20052;-10
2022/09/27 01:53:35;;;;;;;1.00;0.93;;;20.50;47.30;;;;;;5047201;28;20102;-10
2022/09/27 01:56:27;;;;;;;1.42;1.00;;;20.50;47.30;;;;;;5049399;28;20105;-10
2022/09/27 01:59:11;;;;;;;1.10;1.00;;;20.50;47.30;;;;;;5030389;28;20535;-10
2022/09/27 02:01:46;;;;;;;1.33;0.82;;;20.50;47.30;;;;;;5031171;28;20551;-10
2022/09/27 02:04:16;;;;;;;1.42;1.00;;;20.50;47.30;;;;;;5050284;28;20435;-10
2022/09/27 02:07:21;;;;;;;1.00;0.90;;;20.50;47.40;;;;;;5034124;28;20060;-10
2022/09/27 02:09:56;;;;;;;1.45;0.82;;;20.50;47.40;;;;;;5033620;28;20076;-10
2022/09/27 02:12:32;;;;;;;1.10;0.90;;;20.50;47.40;;;;;;5034124;28;20097;-10
2022/09/27 02:15:04;;;;;;;1.15;0.90;;;20.50;47.30;;;;;;5051123;28;20045;-10
2022/09/27 02:17:56;;;;;;;1.67;1.00;;;20.50;47.30;;;;;;5033785;28;20096;-10
2022/09/27 02:20:39;;;;;;;1.10;1.00;;;20.50;47.30;;;;;;5033945;28;20045;-10
2022/09/27 02:23:16;;;;;;;1.00;0.90;;;20.50;47.40;;;;;;5033908;28;20490;-10
2022/09/27 02:25:56;;;;;;;1.30;1.20;;;20.40;47.30;;;;;;5032926;28;20183;-10
2022/09/27 02:28:39;;;;;;;1.05;0.95;;;20.50;47.30;;;;;;5033049;28;20505;-10
2022/09/27 02:31:06;;;;;;;1.10;1.00;;;20.50;47.30;;;;;;5034086;28;20049;-10
2022/09/27 02:33:48;;;;;;;1.13;0.93;;;20.50;47.30;;;;;;5050337;28;20482;-10
2022/09/27 02:36:14;;;;;;;1.25;1.08;;;20.50;47.30;;;;;;5034067;28;20053;-10
2022/09/27 02:38:42;;;;;;;1.10;1.00;;;20.50;47.30;;;;;;5033897;28;20049;-10
2022/09/27 02:41:17;;;;;;;1.23;1.13;;;20.50;47.80;;;;;;5050187;28;20053;-11
2022/09/27 02:43:48;;;;;;;1.33;1.20;;;20.50;47.20;;;;;;5033978;28;20424;-10
2022/09/27 02:46:47;;;;;;;0.90;0.90;;;20.50;47.10;;;;;;5033981;28;20387;-11
2022/09/27 02:49:29;;;;;;;0.80;0.80;;;20.50;47.10;;;;;;5033660;28;20045;-11
2022/09/27 02:52:52;;;;;;;0.90;0.90;;;20.60;47.10;;;;;;5034256;28;20520;-11
2022/09/27 02:55:31;;;;;;;0.63;0.63;;;20.70;47.00;;;;;;5032322;28;20053;-10
2022/09/27 02:58:36;;;;;;;0.93;0.90;;;20.70;47.40;;;;;;5032509;28;20045;-11
2022/09/27 03:01:33;;;;;;;0.90;0.90;;;20.70;46.90;;;;;;5010239;28;20089;-10
2022/09/27 03:04:21;;;;;;;1.25;1.05;;;20.80;46.90;;;;;;5034076;28;20053;-10
2022/09/27 03:06:48;;;;;;;1.05;0.90;;;20.80;46.80;;;;;;5051405;28;20059;-10
2022/09/27 03:09:23;;;;;;;1.20;1.00;;;20.80;46.70;;;;;;5033063;28;20063;-11
2022/09/27 03:11:49;;;;;;;0.98;0.90;;;20.80;46.60;;;;;;5033448;28;20055;-11
2022/09/27 03:14:16;;;;;;;1.00;0.90;;;20.80;46.60;;;;;;5031928;28;20077;-10
2022/09/27 03:16:52;;;;;;;0.73;0.73;;;20.90;46.50;;;;;;5033090;28;20092;-10
2022/09/27 03:19:39;;;;;;;0.80;0.80;;;20.90;46.50;;;;;;5050945;28;20053;-10
2022/09/27 03:22:23;;;;;;;0.80;0.80;;;21.00;46.50;;;;;;5051175;28;20413;-10
2022/09/27 03:24:49;;;;;;;1.05;0.90;;;21.00;46.40;;;;;;5051144;28;20136;-11
2022/09/27 03:27:14;;;;;;;1.00;0.90;;;21.00;46.40;;;;;;5050800;28;20053;-11
2022/09/27 03:29:40;;;;;;;1.02;0.93;;;21.00;46.30;;;;;;5048775;28;20049;-10
2022/09/27 03:32:08;;;;;;;0.90;0.90;;;21.00;46.40;;;;;;5033087;28;20053;-10
2022/09/27 03:35:02;;;;;;;1.25;0.98;;;21.00;46.30;;;;;;5059328;28;20486;-10
2022/09/27 03:37:28;;;;;;;0.70;0.70;;;21.10;46.30;;;;;;5048957;28;20057;-10
2022/09/27 03:39:54;;;;;;;1.10;0.93;;;21.10;46.30;;;;;;5033641;28;20048;-11
2022/09/27 03:42:20;;;;;;;0.98;0.80;;;21.10;46.30;;;;;;5049585;28;20143;-10
2022/09/27 03:44:50;;;;;;;0.90;0.90;;;21.10;46.30;;;;;;5039953;28;20056;-10
2022/09/27 03:47:16;;;;;;;1.00;0.95;;;21.10;46.20;;;;;;5032775;28;20053;-12
2022/09/27 03:49:42;;;;;;;0.80;0.80;;;21.10;46.20;;;;;;5032905;28;20057;-10
2022/09/27 03:52:07;;;;;;;1.25;0.70;;;21.10;46.20;;;;;;5048419;28;20056;-11
2022/09/27 03:54:33;;;;;;;0.73;0.73;;;21.10;46.20;;;;;;5049268;28;20508;-11
2022/09/27 03:56:59;;;;;;;0.80;0.80;;;21.10;46.20;;;;;;5032818;28;20565;-10
2022/09/27 03:59:25;;;;;;;1.00;0.88;;;21.10;46.10;;;;;;5031283;28;20049;-10
2022/09/27 04:02:09;;;;;;;0.80;0.80;;;21.10;46.10;;;;;;5051004;28;20137;-11
2022/09/27 04:04:53;;;;;;;1.70;0.80;;;21.10;46.10;;;;;;5051234;28;20166;-10
2022/09/27 04:07:19;;;;;;;1.17;1.00;;;21.10;46.20;;;;;;5032853;28;20067;-11
2022/09/27 04:09:45;;;;;;;1.20;0.98;;;21.10;46.20;;;;;;5049525;28;20088;-10
2022/09/27 04:12:12;;;;;;;0.80;0.80;;;21.10;46.20;;;;;;5032698;28;20059;-11
2022/09/27 04:14:38;;;;;;;0.70;0.70;;;21.10;46.20;;;;;;5032492;28;20053;-11
2022/09/27 04:17:24;;;;;;;1.05;0.90;;;21.10;46.20;;;;;;5050523;28;20181;-11
2022/09/27 04:20:17;;;;;;;0.82;0.82;;;21.10;46.80;;;;;;5034323;28;20101;-10
2022/09/27 04:22:44;;;;;;;0.77;0.77;;;21.00;46.30;;;;;;5032549;28;20057;-10
2022/09/27 04:25:11;;;;;;;1.00;0.90;;;21.00;46.30;;;;;;5032164;28;20182;-10
2022/09/27 04:27:44;;;;;;;0.93;0.90;;;21.00;46.30;;;;;;5049090;28;20084;-11
2022/09/27 04:30:11;;;;;;;0.90;0.88;;;21.00;46.40;;;;;;5049030;28;20048;-10
2022/09/27 04:33:12;;;;;;;0.80;0.80;;;21.00;46.40;;;;;;5050014;28;20136;-10
2022/09/27 04:39:00;;;;;;;0.80;0.80;;;21.00;46.40;;;;;;5048527;28;20090;-10
2022/09/27 04:41:27;;;;;;;1.20;0.95;;;21.00;46.50;;;;;;5032602;28;20044;-10
2022/09/27 04:43:54;;;;;;;0.70;0.70;;;20.90;46.40;;;;;;5032106;28;20046;-10
2022/09/27 04:46:21;;;;;;;0.98;0.90;;;21.00;46.50;;;;;;5031719;28;20060;-11
2022/09/27 04:48:48;;;;;;;0.70;0.70;;;21.00;46.50;;;;;;5029258;28;20054;-10
2022/09/27 04:51:16;;;;;;;0.90;0.90;;;21.00;46.40;;;;;;5046660;28;20058;-10
2022/09/27 04:53:43;;;;;;;1.35;0.80;;;21.00;46.40;;;;;;5031742;28;20187;-10
2022/09/27 04:56:11;;;;;;;0.88;0.75;;;21.00;46.50;;;;;;5030931;28;20060;-10
2022/09/27 04:58:37;;;;;;;2.22;0.80;;;21.00;46.80;;;;;;5032269;28;20048;-10
2022/09/27 05:01:04;;;;;;;0.82;0.80;;;21.00;47.10;;;;;;5030775;28;20107;-10
2022/09/27 05:03:49;;;;;;;0.80;0.73;;;21.00;47.20;;;;;;5050477;28;20056;-10
2022/09/27 05:06:15;;;;;;;1.30;1.00;;;21.00;47.10;;;;;;5032186;28;20102;-11
2022/09/27 05:08:42;;;;;;;0.98;0.80;;;21.00;47.10;;;;;;5032016;28;20053;-11
2022/09/27 05:11:18;;;;;;;0.80;0.80;;;21.10;47.10;;;;;;5046244;28;20048;-11
2022/09/27 05:14:20;;;;;;;2.63;0.85;;;21.10;47.00;;;;;;4988384;28;20660;-10
2022/09/27 05:17:06;;;;;;;1.00;0.93;;;21.10;47.00;;;;;;5027698;28;20490;-11
2022/09/27 05:19:42;;;;;;;0.63;0.63;;;21.10;46.90;;;;;;5031650;28;20090;-10
2022/09/27 05:22:30;;;;;;;2.78;1.08;;;21.10;46.90;;;;;;5032380;28;20056;-10
2022/09/27 05:24:56;;;;;;;0.85;0.85;;;21.10;46.80;;;;;;5048210;28;20181;-10
2022/09/27 05:27:23;;;;;;;0.75;0.75;;;21.20;46.80;;;;;;5049683;28;20110;-10
2022/09/27 05:29:49;;;;;;;1.50;1.17;;;21.20;46.80;;;;;;5048149;28;20057;-10
2022/09/27 05:32:23;;;;;;;1.00;0.90;;;21.20;46.70;;;;;;5031963;28;20076;-10
2022/09/27 05:34:56;;;;;;;1.35;1.00;;;21.20;46.70;;;;;;5031021;28;20053;-10
2022/09/27 05:37:22;;;;;;;0.90;0.80;;;21.20;46.70;;;;;;5048209;28;20093;-10
2022/09/27 05:39:48;;;;;;;0.80;0.80;;;21.20;46.70;;;;;;5052232;28;20071;-11
2022/09/27 05:42:14;;;;;;;0.85;0.80;;;21.20;46.70;;;;;;5034241;28;20464;-11
2022/09/27 05:44:41;;;;;;;0.90;0.88;;;21.20;46.70;;;;;;5049746;28;20555;-11
2022/09/27 05:47:07;;;;;;;0.73;0.73;;;21.20;46.60;;;;;;5052241;28;20053;-11
2022/09/27 05:49:33;;;;;;;0.95;0.90;;;21.20;46.60;;;;;;5051040;28;20573;-10
2022/09/27 05:52:00;;;;;;;0.80;0.80;;;21.20;46.60;;;;;;5034639;28;20087;-11
2022/09/27 05:54:28;;;;;;;0.73;0.65;;;21.30;46.60;;;;;;5033445;28;20050;-12
2022/09/27 05:56:59;;;;;;;0.98;0.90;;;21.20;46.50;;;;;;5050777;28;20064;-11
2022/09/27 05:59:44;;;;;;;0.82;0.82;;;21.30;46.50;;;;;;5052139;28;20139;-11
2022/09/27 06:02:18;;;;;;;0.75;0.70;;;21.30;46.60;;;;;;5052529;28;20375;-11
2022/09/27 06:05:10;;;;;;;1.33;0.80;;;21.30;46.50;;;;;;5053755;28;20041;-11
2022/09/27 06:08:14;;;;;;;1.60;0.80;;;21.30;46.50;;;;;;4990286;28;20058;-11
2022/09/27 06:10:46;;;;;;;1.15;0.80;;;21.30;46.50;;;;;;4974338;28;20051;-11
2022/09/27 06:13:14;;;;;;;0.73;0.73;;;21.30;46.60;;;;;;5003081;28;20037;-12
2022/09/27 06:15:43;;;;;;;0.80;0.80;;;21.30;46.50;;;;;;5031602;28;20076;-11
2022/09/27 06:18:12;;;;;;;1.10;0.90;;;21.30;46.50;;;;;;5033346;28;20060;-11
2022/09/27 06:20:41;;;;;;;0.63;0.63;;;21.30;46.50;;;;;;5033625;28;20085;-11
2022/09/27 06:23:18;;;;;;;1.42;1.00;;;21.30;46.50;;;;;;5033685;28;20517;-11
2022/09/27 06:25:46;;;;;;;0.75;0.75;;;21.30;46.50;;;;;;5031913;28;20456;-11
2022/09/27 06:28:20;;;;;;;0.70;0.70;;;21.30;46.50;;;;;;5033642;28;20045;-11
2022/09/27 06:30:49;;;;;;;0.82;0.80;;;21.30;46.60;;;;;;5030248;28;20049;-11
2022/09/27 06:33:31;;;;;;;1.75;0.90;;;21.30;46.40;;;;;;5033656;28;20432;-11
2022/09/27 06:36:06;;;;;;;0.80;0.80;;;21.30;46.50;;;;;;5017063;28;20054;-11
2022/09/27 06:38:33;;;;;;;0.85;0.80;;;21.30;46.50;;;;;;5030807;28;20050;-12
2022/09/27 06:41:16;;;;;;;2.55;0.88;;;21.30;46.40;;;;;;5052377;28;20151;-11
2022/09/27 06:44:04;;;;;;;1.10;0.80;;;21.30;46.50;;;;;;5090343;28;20041;-11
2022/09/27 06:46:50;;;;;;;0.88;0.80;;;21.30;46.40;;;;;;5051716;28;20064;-11
2022/09/27 06:49:41;;;;;;;0.80;0.80;;;21.30;46.40;;;;;;5046909;28;20498;-12
2022/09/27 06:52:07;;;;;;;0.73;0.73;;;21.30;46.40;;;;;;5049973;28;20052;-11
2022/09/27 06:54:33;;;;;;;1.58;0.82;;;21.30;46.30;;;;;;5051146;28;20043;-11
2022/09/27 06:56:59;;;;;;;0.70;0.70;;;21.30;46.30;;;;;;5049763;28;20057;-12
2022/09/27 07:02:27;;;;;;;0.77;0.60;;;21.40;46.30;;;;;;5048564;28;20137;-11
2022/09/27 07:05:09;;;;;;;2.03;0.93;;;21.40;46.30;;;;;;5050226;28;20078;-11
2022/09/27 07:07:46;;;;;;;1.40;0.90;;;21.40;46.30;;;;;;5050021;28;20143;-12
2022/09/27 07:10:12;;;;;;;0.90;0.85;;;21.40;46.30;;;;;;5031776;28;20064;-11
2022/09/27 07:12:38;;;;;;;1.25;0.95;;;21.40;46.30;;;;;;5033496;28;20057;-11
2022/09/27 07:15:05;;;;;;;0.73;0.73;;;21.40;46.30;;;;;;5033306;28;20053;-11
2022/09/27 07:17:31;;;;;;;0.60;0.60;;;21.40;46.30;;;;;;5049963;28;20078;-11
2022/09/27 07:19:57;;;;;;;0.82;0.73;;;21.40;46.30;;;;;;5048035;28;20067;-12
2022/09/27 07:22:23;;;;;;;0.70;0.70;;;21.40;46.30;;;;;;5049989;28;20060;-11
2022/09/27 07:24:56;;;;;;;0.90;0.80;;;21.40;46.20;;;;;;5032995;28;20052;-12
2022/09/27 07:27:25;;;;;;;0.70;0.70;;;21.40;46.30;;;;;;5049180;28;20409;-12
2022/09/27 07:29:51;;;;;;;0.70;0.70;;;21.40;46.20;;;;;;5032879;28;20455;-12
2022/09/27 07:32:16;;;;;;;0.70;0.70;;;21.40;46.10;;;;;;5049147;28;20053;-11
2022/09/27 07:34:42;;;;;;;1.50;0.68;;;21.40;46.10;;;;;;5049186;28;20401;-12
2022/09/27 07:37:09;;;;;;;0.93;0.80;;;21.50;46.10;;;;;;5032924;28;20057;-11
2022/09/27 07:39:38;;;;;;;0.85;0.85;;;21.40;46.00;;;;;;5032834;28;20055;-11
2022/09/27 07:42:05;;;;;;;1.67;0.80;;;21.50;46.10;;;;;;5048997;28;20049;-11
2022/09/27 07:44:30;;;;;;;1.23;0.70;;;21.50;46.00;;;;;;5033277;28;20574;-12
2022/09/27 07:47:18;;;;;;;0.70;0.70;;;21.50;46.00;;;;;;5038333;28;20049;-12
2022/09/27 07:50:03;;;;;;;0.80;0.70;;;21.50;46.00;;;;;;5032794;28;20558;-11
2022/09/27 07:52:52;;;;;;;1.42;0.80;;;21.60;46.50;;;;;;5032659;28;20414;-12
2022/09/27 07:55:36;;;;;;;1.10;0.70;;;21.60;45.90;;;;;;5050410;28;20083;-12
2022/09/27 07:58:10;;;;;;;1.42;0.80;;;21.60;45.90;;;;;;5032084;28;20136;-12
2022/09/27 08:00:38;;;;;;;1.00;0.90;;;21.60;45.80;;;;;;5031337;28;20121;-12
2022/09/27 08:03:15;;;;;;;0.90;0.60;;;21.60;45.80;;;;;;5032359;28;20057;-11
2022/09/27 08:05:46;;;;;;;2.10;1.17;;;21.60;45.80;;;;;;5050135;28;20053;-11
2022/09/27 08:08:13;;;;;;;1.45;0.85;;;21.60;45.80;;;;;;5032143;28;20053;-12
2022/09/27 08:10:42;;;;;;;0.88;0.88;;;21.60;45.90;;;;;;5032294;28;20061;-11
2022/09/27 08:13:10;;;;;;;0.82;0.82;;;21.60;45.90;;;;;;5031949;28;20049;-12
2022/09/27 08:15:37;;;;;;;1.83;0.90;;;21.60;46.00;;;;;;5032003;28;20045;-12
2022/09/27 08:18:05;;;;;;;1.10;0.82;;;21.50;46.00;;;;;;5032008;28;20049;-14
2022/09/27 08:21:03;;;;;;;0.77;0.70;;;21.50;46.00;;;;;;5005403;28;20436;-11
2022/09/27 08:23:47;;;;;;;0.95;0.75;;;21.60;46.00;;;;;;5047596;28;20411;-12
2022/09/27 08:26:22;;;;;;;0.88;0.70;;;21.60;45.90;;;;;;5047219;28;20149;-12
2022/09/27 08:28:54;;;;;;;0.93;0.82;;;21.60;46.00;;;;;;5032397;28;20478;-12
2022/09/27 08:31:24;;;;;;;1.05;0.70;;;21.60;46.00;;;;;;5046397;28;20451;-12
2022/09/27 08:33:53;;;;;;;1.15;0.90;;;21.50;46.10;;;;;;5032460;28;20120;-12
2022/09/27 08:36:21;;;;;;;0.70;0.70;;;21.50;46.10;;;;;;5046940;28;20502;-13
2022/09/27 08:38:48;;;;;;;0.68;0.68;;;21.50;46.10;;;;;;5049307;28;20117;-12
2022/09/27 08:41:38;;;;;;;0.80;0.80;;;21.60;46.10;;;;;;5030117;28;20053;-11
2022/09/27 08:44:15;;;;;;;0.65;0.65;;;21.60;46.10;;;;;;5035036;28;20082;-12
2022/09/27 08:47:09;;;;;;;0.80;0.80;;;21.60;46.10;;;;;;5094399;28;20054;-11
2022/09/27 08:49:39;;;;;;;1.45;0.70;;;21.50;46.10;;;;;;5029511;28;20053;-12
2022/09/27 08:52:12;;;;;;;0.80;0.80;;;21.60;46.20;;;;;;5046665;28;20057;-11
2022/09/27 08:54:38;;;;;;;1.25;0.93;;;21.60;46.20;;;;;;5030201;28;20045;-11
2022/09/27 08:57:11;;;;;;;0.90;0.80;;;21.50;46.20;;;;;;5031412;28;20049;-11
2022/09/27 09:00:02;;;;;;;0.93;0.80;;;21.50;46.20;;;;;;5031839;28;20049;-11
2022/09/27 09:02:28;;;;;;;1.42;1.33;;;21.50;46.50;;;;;;5048050;28;20056;-11
2022/09/27 09:05:01;;;;;;;2.08;1.10;;;21.50;46.70;;;;;;5049957;28;20050;-11
2022/09/27 09:07:57;;;;;;;1.58;1.05;;;21.50;46.70;;;;;;5029375;28;20057;-11
2022/09/27 09:13:54;;;;;;;2.42;0.90;;;21.50;47.10;;;;;;5049070;28;20098;-11
2022/09/27 09:16:52;;;;;;;2.00;0.93;;;21.50;46.90;;;;;;5031892;28;20094;-11
2022/09/27 09:19:46;;;;;;;1.60;0.95;;;21.50;46.80;;;;;;5047481;28;20049;-11
2022/09/27 09:22:56;;;;;;;1.77;1.10;;;21.60;46.80;;;;;;5044913;28;20149;-11
2022/09/27 09:25:22;;;;;;;1.23;1.00;;;21.60;46.80;;;;;;5030979;28;20077;-11
2022/09/27 09:27:53;;;;;;;1.45;1.00;;;21.60;46.80;;;;;;5047221;28;20052;-11
2022/09/27 09:30:43;;;;;;;1.25;0.90;;;21.70;46.70;;;;;;5030954;28;20045;-11
2022/09/27 09:33:27;;;;;;;1.75;0.90;;;21.70;46.70;;;;;;5026864;28;20134;-11
2022/09/27 09:36:07;;;;;;;2.33;1.25;;;21.70;46.60;;;;;;5031296;28;20057;-11
2022/09/27 09:38:42;;;;;;;11.55;1.05;;;21.70;46.60;;;;;;5046562;28;20498;-11
2022/09/27 09:41:21;;;;;;;1.40;0.88;;;21.70;46.60;;;;;;5048212;28;20057;-11
2022/09/27 09:43:54;;;;;;;1.40;0.82;;;21.70;46.40;;;;;;5048060;28;20055;-11
2022/09/27 09:46:27;;;;;;;2.00;1.45;;;21.70;46.50;;;;;;5031133;28;20093;-11
2022/09/27 09:49:06;;;;;;;2.13;0.90;;;21.70;46.50;;;;;;5030212;28;20054;-11
2022/09/27 09:51:38;;;;;;;3.65;1.15;;;21.80;46.50;;;;;;5031462;28;20476;-10
2022/09/27 09:54:23;;;;;;;1.70;1.10;;;21.80;46.40;;;;;;5030991;28;20053;-10
2022/09/27 09:57:00;;;;;;;1.38;0.90;;;21.80;46.30;;;;;;5031004;28;20118;-11
2022/09/27 09:59:39;;;;;;;1.63;1.10;;;21.80;46.40;;;;;;5031441;28;20139;-10
2022/09/27 10:02:36;;;;;;;1.10;1.00;;;21.80;46.40;;;;;;5030887;28;20144;-10
2022/09/27 10:05:21;;;;;;;2.10;1.30;;;21.70;46.30;;;;;;5031099;28;20056;-11
2022/09/27 10:07:52;;;;;;;7.35;1.25;;;21.70;46.40;;;;;;5030906;28;20053;-10
2022/09/27 10:10:20;;;;;;;2.15;1.30;;;21.70;46.50;;;;;;5030935;28;20418;-10
2022/09/27 10:13:02;;;;;;;3.65;1.05;;;21.60;46.40;;;;;;5048523;28;20073;-11
2022/09/27 10:15:32;;;;;;;1.90;0.98;;;21.60;46.50;;;;;;5031112;28;20056;-10
2022/09/27 10:17:59;;;;;;;1.73;1.25;;;21.60;46.60;;;;;;5047458;28;20068;-10
2022/09/27 10:20:35;;;;;;;1.75;1.15;;;21.60;46.60;;;;;;5048402;28;20506;-10
2022/09/27 10:23:19;;;;;;;1.42;1.02;;;21.60;46.60;;;;;;5030983;28;20071;-11
2022/09/27 10:26:06;;;;;;;1.85;1.25;;;21.50;46.60;;;;;;5033577;28;20109;-10
2022/09/27 10:28:49;;;;;;;1.33;1.05;;;21.50;46.70;;;;;;5031583;28;20506;-11
2022/09/27 10:31:20;;;;;;;2.63;1.23;;;21.40;46.80;;;;;;5033543;28;20061;-11
2022/09/27 10:34:26;;;;;;;1.58;1.00;;;21.40;46.70;;;;;;5053088;28;20505;-10
2022/09/27 10:37:11;;;;;;;2.28;1.15;;;21.50;46.70;;;;;;5033668;28;20391;-11
2022/09/27 10:39:47;;;;;;;2.30;0.95;;;21.40;46.70;;;;;;5050015;28;20091;-10
2022/09/27 10:42:35;;;;;;;2.13;1.00;;;21.40;46.80;;;;;;5049622;28;20056;-10
2022/09/27 10:45:27;;;;;;;0.95;0.88;;;21.40;46.80;;;;;;5031105;28;20050;-10
2022/09/27 10:47:59;;;;;;;2.55;0.85;;;21.40;46.90;;;;;;5033600;28;20067;-11
2022/09/27 10:50:38;;;;;;;2.60;1.20;;;21.40;46.80;;;;;;5033540;28;20053;-11
2022/09/27 10:53:20;;;;;;;1.42;1.10;;;21.40;46.70;;;;;;5033400;28;20057;-10
2022/09/27 10:55:56;;;;;;;1.05;0.80;;;21.40;46.80;;;;;;5031636;28;20075;-10
2022/09/27 10:58:28;;;;;;;1.30;1.20;;;21.40;46.70;;;;;;5033082;28;20053;-11
2022/09/27 11:01:02;;;;;;;1.30;1.05;;;21.40;46.70;;;;;;5030964;28;20057;-11
2022/09/27 11:03:31;;;;;;;1.20;1.08;;;21.40;46.70;;;;;;5048435;28;20114;-10
2022/09/27 11:05:58;;;;;;;1.58;1.25;;;21.50;46.60;;;;;;5031346;28;20581;-10
2022/09/27 11:08:32;;;;;;;1.42;1.00;;;21.50;46.60;;;;;;5032970;28;20057;-10
2022/09/27 11:11:27;;;;;;;2.70;1.25;;;21.40;46.60;;;;;;5047716;28;20060;-10
2022/09/27 11:14:03;;;;;;;1.23;0.95;;;21.40;46.70;;;;;;5049425;28;20041;-11
2022/09/27 11:16:56;;;;;;;1.90;1.13;;;21.40;46.70;;;;;;5033277;28;20459;-11
2022/09/27 11:19:34;;;;;;;1.38;1.27;;;21.40;46.80;;;;;;5048706;28;20065;-10
2022/09/27 11:22:37;;;;;;;1.52;1.30;;;21.40;46.80;;;;;;5047817;28;20049;-10
2022/09/27 11:25:30;;;;;;;1.00;0.88;;;21.40;46.90;;;;;;5040443;28;20048;-11
2022/09/27 11:28:43;;;;;;;2.50;1.27;;;21.30;46.90;;;;;;5032612;28;20069;-11
2022/09/27 11:31:32;;;;;;;1.17;1.08;;;21.40;46.90;;;;;;5054699;28;20101;-10
2022/09/27 11:34:30;;;;;;;1.20;1.10;;;21.40;46.90;;;;;;5032733;28;20079;-11
2022/09/27 11:37:25;;;;;;;1.70;1.17;;;21.40;46.90;;;;;;5031777;28;20117;-10
2022/09/27 11:40:20;;;;;;;2.38;1.27;;;21.40;46.90;;;;;;5049404;28;20593;-10
2022/09/27 11:43:13;;;;;;;1.52;1.13;;;21.40;46.90;;;;;;5032923;28;20069;-10
2022/09/27 11:45:57;;;;;;;1.10;1.00;;;21.40;46.80;;;;;;5048991;28;20144;-11
2022/09/27 11:49:06;;;;;;;1.45;1.10;;;21.40;46.90;;;;;;5031897;28;20443;-10
2022/09/27 11:51:58;;;;;;;1.42;1.08;;;21.40;47.00;;;;;;5049112;28;20049;-11
2022/09/27 11:54:53;;;;;;;1.25;1.10;;;21.40;46.90;;;;;;5049056;28;20072;-10
2022/09/27 11:57:32;;;;;;;2.15;1.20;;;21.40;46.80;;;;;;5047183;28;20435;-10
2022/09/27 12:00:18;;;;;;;2.08;1.30;;;21.40;46.80;;;;;;5031866;28;20084;-10
2022/09/27 12:03:19;;;;;;;0.95;0.95;;;21.40;46.80;;;;;;5049307;28;20048;-11
2022/09/27 12:06:20;;;;;;;1.20;1.10;;;21.40;46.80;;;;;;5031331;28;20056;-11
2022/09/27 12:08:50;;;;;;;;;;;21.40;46.90;;;;;;5090030;28;20109;-10
2022/09/27 12:11:45;;;;;;;1.33;1.20;;;21.40;47.00;;;;;;5032269;28;20008;-10
2022/09/27 12:14:32;;;;;;;1.30;1.20;;;21.40;47.00;;;;;;5031051;28;20053;-11
2022/09/27 12:17:03;;;;;;;1.90;1.23;;;21.40;47.00;;;;;;5032041;28;20147;-11
2022/09/27 12:19:34;;;;;;;0.95;0.90;;;21.40;47.10;;;;;;5030856;28;20061;-11
2022/09/27 12:22:15;;;;;;;1.42;1.33;;;21.40;47.00;;;;;;5032257;28;20040;-10
2022/09/27 12:24:44;;;;;;;2.97;1.33;;;21.40;47.00;;;;;;5048485;28;20053;-10
2022/09/27 12:27:45;;;;;;;2.20;1.38;;;21.40;47.00;;;;;;5042707;28;20136;-11
2022/09/27 12:30:16;;;;;;;1.88;1.50;;;21.40;47.00;;;;;;5030709;28;20144;-10
2022/09/27 12:32:56;;;;;;;3.00;1.40;;;21.40;47.00;;;;;;5031927;28;20056;-11
2022/09/27 12:35:45;;;;;;;1.40;1.30;;;21.40;47.10;;;;;;5031763;28;20049;-11
2022/09/27 12:38:18;;;;;;;2.45;1.13;;;21.40;47.10;;;;;;5046685;28;20049;-11
2022/09/27 12:40:48;;;;;;;1.88;1.27;;;21.40;47.00;;;;;;5050001;28;20463;-10
2022/09/27 12:43:26;;;;;;;2.28;1.40;;;21.40;47.00;;;;;;5029201;28;20452;-11
2022/09/27 12:46:05;;;;;;;1.30;1.20;;;21.40;47.10;;;;;;5031635;28;20523;-11
2022/09/27 12:49:04;;;;;;;3.10;1.58;;;21.40;47.10;;;;;;5046307;28;20053;-10
2022/09/27 12:51:42;;;;;;;2.50;1.33;;;21.40;47.10;;;;;;5031852;28;20421;-10
2022/09/27 12:54:11;;;;;;;3.20;1.45;;;21.40;47.10;;;;;;5048208;28;20097;-10
2022/09/27 12:57:20;;;;;;;3.75;1.40;;;21.40;47.10;;;;;;5048957;28;20486;-11
2022/09/27 13:00:03;;;;;;;2.78;1.42;;;21.40;47.20;;;;;;5070140;28;20159;-10
2022/09/27 13:03:06;;;;;;;2.80;1.50;;;21.40;47.30;;;;;;5032832;28;20102;-11
2022/09/27 13:05:49;;;;;;;2.25;1.73;;;21.40;47.30;;;;;;5031926;28;20056;-10
2022/09/27 13:08:47;;;;;;;1.92;1.52;;;21.30;47.40;;;;;;5048230;28;20501;-10
2022/09/27 13:11:36;;;;;;;3.33;1.60;;;21.30;47.40;;;;;;5048157;28;20486;-10
2022/09/27 13:14:04;;;;;;;2.05;1.67;;;21.30;47.40;;;;;;5031817;28;20041;-10
2022/09/27 13:16:30;;;;;;;1.90;1.45;;;21.30;47.40;;;;;;5031636;28;20076;-11
2022/09/27 13:19:00;;;;;;;2.67;1.75;;;21.30;47.30;;;;;;5048435;28;20413;-11
2022/09/27 13:21:46;;;;;;;3.85;1.48;;;21.30;47.30;;;;;;5047190;28;20056;-11
2022/09/27 13:24:48;;;;;;;2.45;1.48;;;21.30;47.30;;;;;;5031548;28;20132;-10
2022/09/27 13:27:47;;;;;;;2.35;1.65;;;21.30;47.30;;;;;;5031459;28;20045;-10
2022/09/27 13:30:19;;;;;;;5.93;1.65;;;21.30;47.30;;;;;;5029527;28;20087;-11
2022/09/27 13:33:13;;;;;;;1.75;1.40;;;21.30;47.60;;;;;;5031465;28;20474;-10
2022/09/27 13:36:20;;;;;;;4.07;2.13;;;21.30;47.60;;;;;;5030487;28;20053;-10
2022/09/27 13:39:09;;;;;;;3.38;1.65;;;21.30;47.60;;;;;;5030896;28;20383;-11
2022/09/27 13:41:48;;;;;;;3.70;1.90;;;21.30;47.50;;;;;;5031633;28;20061;-10
2022/09/27 13:44:25;;;;;;;2.50;1.73;;;21.30;47.50;;;;;;5048939;28;20512;-10
2022/09/27 13:47:05;;;;;;;2.92;1.73;;;21.30;47.40;;;;;;5031202;28;20447;-10
2022/09/27 13:49:31;;;;;;;2.70;1.98;;;21.30;47.40;;;;;;5031379;28;20482;-10
2022/09/27 13:52:24;;;;;;;3.55;2.00;;;21.40;47.50;;;;;;5047607;28;20443;-10